sensor_id;sensor_type;location;lat;lon;timestamp;P1;durP1;ratioP1;P2;durP2;ratioP2
37701;SDS011;23548;51.196;6.838;2023-07-24T00:00:24;8.68;;;5.93;;
37701;SDS011;23548;51.196;6.838;2023-07-24T00:02:50;11.57;;;5.88;;
37701;SDS011;23548;51.196;6.838;2023-07-24T00:05:15;8.75;;;6.38;;
37701;SDS011;23548;51.196;6.838;2023-07-24T00:07:41;9.75;;;6.35;;
37701;SDS011;23548;51.196;6.838;2023-07-24T00:10:07;10.65;;;6.60;;
37701;SDS011;23548;51.196;6.838;2023-07-24T00:12:33;8.68;;;6.18;;
37701;SDS011;23548;51.196;6.838;2023-07-24T00:14:59;8.43;;;5.90;;
37701;SDS011;23548;51.196;6.838;2023-07-24T00:17:24;11.25;;;6.05;;
37701;SDS011;23548;51.196;6.838;2023-07-24T00:19:50;9.23;;;6.00;;
37701;SDS011;23548;51.196;6.838;2023-07-24T00:22:16;8.93;;;6.35;;
37701;SDS011;23548;51.196;6.838;2023-07-24T00:24:42;10.45;;;6.13;;
37701;SDS011;23548;51.196;6.838;2023-07-24T00:27:07;9.32;;;6.78;;
37701;SDS011;23548;51.196;6.838;2023-07-24T00:29:33;7.65;;;5.97;;
37701;SDS011;23548;51.196;6.838;2023-07-24T00:31:59;10.27;;;6.18;;
37701;SDS011;23548;51.196;6.838;2023-07-24T00:34:25;9.63;;;6.43;;
37701;SDS011;23548;51.196;6.838;2023-07-24T00:36:51;8.88;;;5.47;;
37701;SDS011;23548;51.196;6.838;2023-07-24T00:39:16;7.38;;;5.80;;
37701;SDS011;23548;51.196;6.838;2023-07-24T00:41:42;10.43;;;6.18;;
37701;SDS011;23548;51.196;6.838;2023-07-24T00:44:08;10.60;;;5.22;;
37701;SDS011;23548;51.196;6.838;2023-07-24T00:46:34;8.77;;;5.97;;
37701;SDS011;23548;51.196;6.838;2023-07-24T00:49:01;10.40;;;5.13;;
37701;SDS011;23548;51.196;6.838;2023-07-24T00:51:28;6.65;;;5.22;;
37701;SDS011;23548;51.196;6.838;2023-07-24T00:54:01;8.32;;;5.18;;
37701;SDS011;23548;51.196;6.838;2023-07-24T00:56:28;7.28;;;4.90;;
37701;SDS011;23548;51.196;6.838;2023-07-24T00:58:55;6.88;;;4.72;;
37701;SDS011;23548;51.196;6.838;2023-07-24T01:01:22;8.60;;;4.80;;
37701;SDS011;23548;51.196;6.838;2023-07-24T01:03:48;6.45;;;4.88;;
37701;SDS011;23548;51.196;6.838;2023-07-24T01:06:14;8.75;;;4.82;;
37701;SDS011;23548;51.196;6.838;2023-07-24T01:08:40;9.63;;;4.68;;
37701;SDS011;23548;51.196;6.838;2023-07-24T01:11:09;6.97;;;4.72;;
37701;SDS011;23548;51.196;6.838;2023-07-24T01:13:44;8.45;;;5.00;;
37701;SDS011;23548;51.196;6.838;2023-07-24T01:16:21;10.70;;;5.35;;
37701;SDS011;23548;51.196;6.838;2023-07-24T01:18:48;6.75;;;4.88;;
37701;SDS011;23548;51.196;6.838;2023-07-24T01:21:16;10.10;;;4.80;;
37701;SDS011;23548;51.196;6.838;2023-07-24T01:26:31;6.82;;;4.90;;
37701;SDS011;23548;51.196;6.838;2023-07-24T01:28:57;7.97;;;5.55;;
37701;SDS011;23548;51.196;6.838;2023-07-24T01:31:23;10.02;;;4.78;;
37701;SDS011;23548;51.196;6.838;2023-07-24T01:33:49;6.10;;;5.20;;
37701;SDS011;23548;51.196;6.838;2023-07-24T01:36:14;8.18;;;4.95;;
37701;SDS011;23548;51.196;6.838;2023-07-24T01:38:40;7.88;;;5.90;;
37701;SDS011;23548;51.196;6.838;2023-07-24T01:41:07;10.85;;;5.75;;
37701;SDS011;23548;51.196;6.838;2023-07-24T01:43:33;10.10;;;6.75;;
37701;SDS011;23548;51.196;6.838;2023-07-24T01:45:59;9.52;;;7.47;;
37701;SDS011;23548;51.196;6.838;2023-07-24T01:48:25;8.70;;;6.25;;
37701;SDS011;23548;51.196;6.838;2023-07-24T01:50:51;10.23;;;7.18;;
37701;SDS011;23548;51.196;6.838;2023-07-24T01:56:10;11.32;;;7.32;;
37701;SDS011;23548;51.196;6.838;2023-07-24T01:58:35;11.30;;;7.03;;
37701;SDS011;23548;51.196;6.838;2023-07-24T02:01:01;8.43;;;7.13;;
37701;SDS011;23548;51.196;6.838;2023-07-24T02:03:27;13.55;;;7.50;;
37701;SDS011;23548;51.196;6.838;2023-07-24T02:05:53;8.90;;;6.45;;
37701;SDS011;23548;51.196;6.838;2023-07-24T02:08:18;9.65;;;6.68;;
37701;SDS011;23548;51.196;6.838;2023-07-24T02:10:47;10.00;;;6.65;;
37701;SDS011;23548;51.196;6.838;2023-07-24T02:13:14;12.40;;;7.40;;
37701;SDS011;23548;51.196;6.838;2023-07-24T02:15:40;10.23;;;6.82;;
37701;SDS011;23548;51.196;6.838;2023-07-24T02:18:06;11.82;;;6.63;;
37701;SDS011;23548;51.196;6.838;2023-07-24T02:20:31;8.00;;;6.18;;
37701;SDS011;23548;51.196;6.838;2023-07-24T02:22:57;8.63;;;6.63;;
37701;SDS011;23548;51.196;6.838;2023-07-24T02:25:23;7.20;;;6.20;;
37701;SDS011;23548;51.196;6.838;2023-07-24T02:27:49;7.20;;;6.13;;
37701;SDS011;23548;51.196;6.838;2023-07-24T02:30:14;8.00;;;5.90;;
37701;SDS011;23548;51.196;6.838;2023-07-24T02:32:40;9.77;;;5.72;;
37701;SDS011;23548;51.196;6.838;2023-07-24T02:35:06;9.48;;;6.47;;
37701;SDS011;23548;51.196;6.838;2023-07-24T02:37:32;8.95;;;6.78;;
37701;SDS011;23548;51.196;6.838;2023-07-24T02:39:58;11.80;;;6.13;;
37701;SDS011;23548;51.196;6.838;2023-07-24T02:42:23;9.40;;;6.03;;
37701;SDS011;23548;51.196;6.838;2023-07-24T02:44:49;10.55;;;6.20;;
37701;SDS011;23548;51.196;6.838;2023-07-24T02:47:15;9.52;;;6.53;;
37701;SDS011;23548;51.196;6.838;2023-07-24T02:49:41;12.35;;;6.90;;
37701;SDS011;23548;51.196;6.838;2023-07-24T02:52:06;10.20;;;6.65;;
37701;SDS011;23548;51.196;6.838;2023-07-24T02:54:32;11.00;;;6.57;;
37701;SDS011;23548;51.196;6.838;2023-07-24T02:56:58;11.80;;;6.43;;
37701;SDS011;23548;51.196;6.838;2023-07-24T02:59:23;11.07;;;7.15;;
37701;SDS011;23548;51.196;6.838;2023-07-24T03:01:49;13.05;;;6.95;;
37701;SDS011;23548;51.196;6.838;2023-07-24T03:04:15;11.10;;;7.28;;
37701;SDS011;23548;51.196;6.838;2023-07-24T03:06:40;9.30;;;6.25;;
37701;SDS011;23548;51.196;6.838;2023-07-24T03:09:06;14.38;;;7.43;;
37701;SDS011;23548;51.196;6.838;2023-07-24T03:11:32;9.48;;;6.60;;
37701;SDS011;23548;51.196;6.838;2023-07-24T03:13:58;11.73;;;6.95;;
37701;SDS011;23548;51.196;6.838;2023-07-24T03:16:23;13.40;;;6.70;;
37701;SDS011;23548;51.196;6.838;2023-07-24T03:18:49;12.35;;;7.78;;
37701;SDS011;23548;51.196;6.838;2023-07-24T03:21:15;10.90;;;6.75;;
37701;SDS011;23548;51.196;6.838;2023-07-24T03:23:41;10.23;;;7.00;;
37701;SDS011;23548;51.196;6.838;2023-07-24T03:26:07;9.38;;;6.65;;
37701;SDS011;23548;51.196;6.838;2023-07-24T03:28:32;12.80;;;6.97;;
37701;SDS011;23548;51.196;6.838;2023-07-24T03:30:58;12.05;;;7.28;;
37701;SDS011;23548;51.196;6.838;2023-07-24T03:33:24;13.68;;;7.18;;
37701;SDS011;23548;51.196;6.838;2023-07-24T03:35:50;14.90;;;8.43;;
37701;SDS011;23548;51.196;6.838;2023-07-24T03:38:15;15.25;;;7.78;;
37701;SDS011;23548;51.196;6.838;2023-07-24T03:40:41;11.02;;;7.60;;
37701;SDS011;23548;51.196;6.838;2023-07-24T03:43:07;12.15;;;8.00;;
37701;SDS011;23548;51.196;6.838;2023-07-24T03:45:33;14.65;;;8.52;;
37701;SDS011;23548;51.196;6.838;2023-07-24T03:47:58;13.95;;;7.90;;
37701;SDS011;23548;51.196;6.838;2023-07-24T03:50:24;10.75;;;7.22;;
37701;SDS011;23548;51.196;6.838;2023-07-24T03:52:50;12.82;;;7.93;;
37701;SDS011;23548;51.196;6.838;2023-07-24T03:55:16;12.50;;;7.75;;
37701;SDS011;23548;51.196;6.838;2023-07-24T03:57:42;9.68;;;6.95;;
37701;SDS011;23548;51.196;6.838;2023-07-24T04:00:07;13.63;;;6.85;;
37701;SDS011;23548;51.196;6.838;2023-07-24T04:02:34;12.95;;;6.55;;
37701;SDS011;23548;51.196;6.838;2023-07-24T04:04:59;9.10;;;6.50;;
37701;SDS011;23548;51.196;6.838;2023-07-24T04:07:25;10.57;;;6.50;;
37701;SDS011;23548;51.196;6.838;2023-07-24T04:09:51;14.93;;;7.75;;
37701;SDS011;23548;51.196;6.838;2023-07-24T04:12:16;11.77;;;6.30;;
37701;SDS011;23548;51.196;6.838;2023-07-24T04:14:42;12.52;;;6.28;;
37701;SDS011;23548;51.196;6.838;2023-07-24T04:17:07;12.40;;;6.50;;
37701;SDS011;23548;51.196;6.838;2023-07-24T04:19:33;7.45;;;5.47;;
37701;SDS011;23548;51.196;6.838;2023-07-24T04:21:59;8.02;;;6.25;;
37701;SDS011;23548;51.196;6.838;2023-07-24T04:24:25;13.07;;;6.25;;
37701;SDS011;23548;51.196;6.838;2023-07-24T04:26:50;16.00;;;7.40;;
37701;SDS011;23548;51.196;6.838;2023-07-24T04:29:16;9.43;;;6.05;;
37701;SDS011;23548;51.196;6.838;2023-07-24T04:31:42;10.43;;;6.78;;
37701;SDS011;23548;51.196;6.838;2023-07-24T04:34:07;13.15;;;6.82;;
37701;SDS011;23548;51.196;6.838;2023-07-24T04:36:33;9.45;;;6.47;;
37701;SDS011;23548;51.196;6.838;2023-07-24T04:38:59;12.20;;;6.97;;
37701;SDS011;23548;51.196;6.838;2023-07-24T04:41:24;9.82;;;6.95;;
37701;SDS011;23548;51.196;6.838;2023-07-24T04:43:50;12.10;;;7.57;;
37701;SDS011;23548;51.196;6.838;2023-07-24T04:46:16;18.95;;;11.95;;
37701;SDS011;23548;51.196;6.838;2023-07-24T04:48:42;16.55;;;6.70;;
37701;SDS011;23548;51.196;6.838;2023-07-24T04:51:08;10.82;;;7.82;;
37701;SDS011;23548;51.196;6.838;2023-07-24T04:53:34;11.80;;;6.60;;
37701;SDS011;23548;51.196;6.838;2023-07-24T04:56:00;10.63;;;6.53;;
37701;SDS011;23548;51.196;6.838;2023-07-24T04:58:25;16.05;;;7.38;;
37701;SDS011;23548;51.196;6.838;2023-07-24T05:00:51;10.73;;;6.50;;
37701;SDS011;23548;51.196;6.838;2023-07-24T05:03:17;10.18;;;7.03;;
37701;SDS011;23548;51.196;6.838;2023-07-24T05:05:43;10.52;;;6.43;;
37701;SDS011;23548;51.196;6.838;2023-07-24T05:08:09;11.02;;;6.60;;
37701;SDS011;23548;51.196;6.838;2023-07-24T05:10:37;16.60;;;6.90;;
37701;SDS011;23548;51.196;6.838;2023-07-24T05:13:03;14.38;;;6.80;;
37701;SDS011;23548;51.196;6.838;2023-07-24T05:15:29;13.13;;;7.40;;
37701;SDS011;23548;51.196;6.838;2023-07-24T05:17:55;14.02;;;7.68;;
37701;SDS011;23548;51.196;6.838;2023-07-24T05:20:20;15.05;;;7.13;;
37701;SDS011;23548;51.196;6.838;2023-07-24T05:22:47;15.93;;;8.00;;
37701;SDS011;23548;51.196;6.838;2023-07-24T05:25:13;12.10;;;7.60;;
37701;SDS011;23548;51.196;6.838;2023-07-24T05:27:38;16.08;;;8.02;;
37701;SDS011;23548;51.196;6.838;2023-07-24T05:30:04;13.52;;;7.90;;
37701;SDS011;23548;51.196;6.838;2023-07-24T05:32:31;14.80;;;7.90;;
37701;SDS011;23548;51.196;6.838;2023-07-24T05:34:56;11.10;;;7.03;;
37701;SDS011;23548;51.196;6.838;2023-07-24T05:37:22;14.63;;;7.63;;
37701;SDS011;23548;51.196;6.838;2023-07-24T05:39:48;12.25;;;7.00;;
37701;SDS011;23548;51.196;6.838;2023-07-24T05:42:13;12.85;;;7.00;;
37701;SDS011;23548;51.196;6.838;2023-07-24T05:44:39;10.85;;;6.68;;
37701;SDS011;23548;51.196;6.838;2023-07-24T05:47:05;14.35;;;6.68;;
37701;SDS011;23548;51.196;6.838;2023-07-24T05:49:31;16.48;;;7.30;;
37701;SDS011;23548;51.196;6.838;2023-07-24T05:51:57;12.48;;;6.57;;
37701;SDS011;23548;51.196;6.838;2023-07-24T05:54:22;14.45;;;7.38;;
37701;SDS011;23548;51.196;6.838;2023-07-24T05:56:48;15.50;;;6.95;;
37701;SDS011;23548;51.196;6.838;2023-07-24T05:59:14;11.00;;;6.70;;
37701;SDS011;23548;51.196;6.838;2023-07-24T06:01:39;11.30;;;6.82;;
37701;SDS011;23548;51.196;6.838;2023-07-24T06:04:05;9.65;;;6.50;;
37701;SDS011;23548;51.196;6.838;2023-07-24T06:06:32;13.85;;;7.45;;
37701;SDS011;23548;51.196;6.838;2023-07-24T06:08:58;11.27;;;6.70;;
37701;SDS011;23548;51.196;6.838;2023-07-24T06:11:24;13.55;;;6.65;;
37701;SDS011;23548;51.196;6.838;2023-07-24T06:13:52;10.27;;;6.45;;
37701;SDS011;23548;51.196;6.838;2023-07-24T06:16:18;10.75;;;6.40;;
37701;SDS011;23548;51.196;6.838;2023-07-24T06:18:43;9.30;;;6.20;;
37701;SDS011;23548;51.196;6.838;2023-07-24T06:21:09;10.15;;;6.28;;
37701;SDS011;23548;51.196;6.838;2023-07-24T06:23:35;10.48;;;5.82;;
37701;SDS011;23548;51.196;6.838;2023-07-24T06:26:01;11.65;;;5.57;;
37701;SDS011;23548;51.196;6.838;2023-07-24T06:28:27;14.05;;;6.57;;
37701;SDS011;23548;51.196;6.838;2023-07-24T06:30:53;8.90;;;5.57;;
37701;SDS011;23548;51.196;6.838;2023-07-24T06:33:19;11.95;;;5.20;;
37701;SDS011;23548;51.196;6.838;2023-07-24T06:35:47;10.02;;;5.93;;
37701;SDS011;23548;51.196;6.838;2023-07-24T06:38:13;8.30;;;5.53;;
37701;SDS011;23548;51.196;6.838;2023-07-24T06:40:39;9.35;;;5.78;;
37701;SDS011;23548;51.196;6.838;2023-07-24T06:43:05;9.00;;;6.03;;
37701;SDS011;23548;51.196;6.838;2023-07-24T06:45:31;8.57;;;5.68;;
37701;SDS011;23548;51.196;6.838;2023-07-24T06:47:57;9.05;;;5.40;;
37701;SDS011;23548;51.196;6.838;2023-07-24T06:50:23;10.63;;;5.70;;
37701;SDS011;23548;51.196;6.838;2023-07-24T06:52:49;6.65;;;5.03;;
37701;SDS011;23548;51.196;6.838;2023-07-24T06:55:16;9.38;;;5.35;;
37701;SDS011;23548;51.196;6.838;2023-07-24T06:57:42;6.20;;;4.75;;
37701;SDS011;23548;51.196;6.838;2023-07-24T07:00:07;7.85;;;5.15;;
37701;SDS011;23548;51.196;6.838;2023-07-24T07:02:36;6.70;;;5.05;;
37701;SDS011;23548;51.196;6.838;2023-07-24T07:05:03;10.27;;;5.10;;
37701;SDS011;23548;51.196;6.838;2023-07-24T07:07:29;9.10;;;5.00;;
37701;SDS011;23548;51.196;6.838;2023-07-24T07:09:55;8.73;;;4.53;;
37701;SDS011;23548;51.196;6.838;2023-07-24T07:12:20;5.90;;;4.47;;
37701;SDS011;23548;51.196;6.838;2023-07-24T07:14:46;9.60;;;4.50;;
37701;SDS011;23548;51.196;6.838;2023-07-24T07:17:12;6.50;;;4.60;;
37701;SDS011;23548;51.196;6.838;2023-07-24T07:19:38;10.43;;;5.07;;
37701;SDS011;23548;51.196;6.838;2023-07-24T07:22:04;6.85;;;4.50;;
37701;SDS011;23548;51.196;6.838;2023-07-24T07:24:30;6.10;;;4.10;;
37701;SDS011;23548;51.196;6.838;2023-07-24T07:26:56;8.52;;;4.10;;
37701;SDS011;23548;51.196;6.838;2023-07-24T07:29:22;6.55;;;3.97;;
37701;SDS011;23548;51.196;6.838;2023-07-24T07:31:48;5.90;;;4.20;;
37701;SDS011;23548;51.196;6.838;2023-07-24T07:34:13;8.77;;;4.03;;
37701;SDS011;23548;51.196;6.838;2023-07-24T07:36:39;6.00;;;4.05;;
37701;SDS011;23548;51.196;6.838;2023-07-24T07:39:05;6.80;;;4.03;;
37701;SDS011;23548;51.196;6.838;2023-07-24T07:41:31;8.73;;;4.30;;
37701;SDS011;23548;51.196;6.838;2023-07-24T07:43:57;7.15;;;4.00;;
37701;SDS011;23548;51.196;6.838;2023-07-24T07:46:22;5.40;;;3.90;;
37701;SDS011;23548;51.196;6.838;2023-07-24T07:48:48;6.10;;;4.00;;
37701;SDS011;23548;51.196;6.838;2023-07-24T07:51:14;6.82;;;4.07;;
37701;SDS011;23548;51.196;6.838;2023-07-24T07:53:40;6.40;;;3.50;;
37701;SDS011;23548;51.196;6.838;2023-07-24T07:56:06;4.88;;;3.65;;
37701;SDS011;23548;51.196;6.838;2023-07-24T07:58:32;4.55;;;3.53;;
37701;SDS011;23548;51.196;6.838;2023-07-24T08:01:02;6.00;;;4.03;;
37701;SDS011;23548;51.196;6.838;2023-07-24T08:03:29;6.38;;;3.63;;
37701;SDS011;23548;51.196;6.838;2023-07-24T08:05:58;4.90;;;3.38;;
37701;SDS011;23548;51.196;6.838;2023-07-24T08:08:24;5.18;;;3.17;;
37701;SDS011;23548;51.196;6.838;2023-07-24T08:10:50;6.60;;;3.63;;
37701;SDS011;23548;51.196;6.838;2023-07-24T08:13:16;6.43;;;3.47;;
37701;SDS011;23548;51.196;6.838;2023-07-24T08:15:42;5.95;;;3.75;;
37701;SDS011;23548;51.196;6.838;2023-07-24T08:18:07;5.35;;;3.70;;
37701;SDS011;23548;51.196;6.838;2023-07-24T08:20:36;4.55;;;3.53;;
37701;SDS011;23548;51.196;6.838;2023-07-24T08:23:03;7.30;;;3.97;;
37701;SDS011;23548;51.196;6.838;2023-07-24T08:25:29;4.13;;;3.13;;
37701;SDS011;23548;51.196;6.838;2023-07-24T08:27:55;5.25;;;3.28;;
37701;SDS011;23548;51.196;6.838;2023-07-24T08:30:21;6.45;;;3.40;;
37701;SDS011;23548;51.196;6.838;2023-07-24T08:32:46;6.53;;;3.60;;
37701;SDS011;23548;51.196;6.838;2023-07-24T08:35:15;5.95;;;3.20;;
37701;SDS011;23548;51.196;6.838;2023-07-24T08:37:44;4.15;;;3.22;;
37701;SDS011;23548;51.196;6.838;2023-07-24T08:40:10;5.40;;;3.63;;
37701;SDS011;23548;51.196;6.838;2023-07-24T08:42:39;7.05;;;3.72;;
37701;SDS011;23548;51.196;6.838;2023-07-24T08:45:12;3.90;;;3.20;;
37701;SDS011;23548;51.196;6.838;2023-07-24T08:47:40;4.25;;;3.47;;
37701;SDS011;23548;51.196;6.838;2023-07-24T08:50:08;7.82;;;3.60;;
37701;SDS011;23548;51.196;6.838;2023-07-24T08:52:36;6.50;;;3.55;;
37701;SDS011;23548;51.196;6.838;2023-07-24T08:55:04;5.32;;;3.38;;
37701;SDS011;23548;51.196;6.838;2023-07-24T08:57:31;5.45;;;3.60;;
37701;SDS011;23548;51.196;6.838;2023-07-24T08:59:56;6.47;;;3.47;;
37701;SDS011;23548;51.196;6.838;2023-07-24T09:02:23;3.78;;;3.38;;
37701;SDS011;23548;51.196;6.838;2023-07-24T09:04:49;8.02;;;4.28;;
37701;SDS011;23548;51.196;6.838;2023-07-24T09:07:15;5.63;;;4.30;;
37701;SDS011;23548;51.196;6.838;2023-07-24T09:09:40;7.43;;;3.80;;
37701;SDS011;23548;51.196;6.838;2023-07-24T09:12:07;7.20;;;4.53;;
37701;SDS011;23548;51.196;6.838;2023-07-24T09:14:33;5.05;;;4.07;;
37701;SDS011;23548;51.196;6.838;2023-07-24T09:17:03;6.90;;;4.07;;
37701;SDS011;23548;51.196;6.838;2023-07-24T09:19:33;6.90;;;3.92;;
37701;SDS011;23548;51.196;6.838;2023-07-24T09:22:08;6.57;;;3.15;;
37701;SDS011;23548;51.196;6.838;2023-07-24T09:24:53;6.13;;;3.90;;
37701;SDS011;23548;51.196;6.838;2023-07-24T09:27:20;5.78;;;4.40;;
37701;SDS011;23548;51.196;6.838;2023-07-24T09:29:49;5.10;;;3.90;;
37701;SDS011;23548;51.196;6.838;2023-07-24T09:32:19;5.47;;;3.78;;
37701;SDS011;23548;51.196;6.838;2023-07-24T09:34:46;6.60;;;4.45;;
37701;SDS011;23548;51.196;6.838;2023-07-24T09:37:22;6.95;;;4.05;;
37701;SDS011;23548;51.196;6.838;2023-07-24T09:39:58;7.50;;;4.40;;
37701;SDS011;23548;51.196;6.838;2023-07-24T09:42:35;6.68;;;4.75;;
37701;SDS011;23548;51.196;6.838;2023-07-24T09:45:02;6.25;;;4.38;;
37701;SDS011;23548;51.196;6.838;2023-07-24T09:47:29;10.13;;;4.57;;
37701;SDS011;23548;51.196;6.838;2023-07-24T09:49:56;9.07;;;4.47;;
37701;SDS011;23548;51.196;6.838;2023-07-24T09:52:22;7.60;;;4.72;;
37701;SDS011;23548;51.196;6.838;2023-07-24T09:55:33;8.77;;;4.25;;
37701;SDS011;23548;51.196;6.838;2023-07-24T09:57:44;6.60;;;4.63;;
37701;SDS011;23548;51.196;6.838;2023-07-24T10:00:11;7.32;;;4.60;;
37701;SDS011;23548;51.196;6.838;2023-07-24T10:02:38;4.80;;;3.90;;
37701;SDS011;23548;51.196;6.838;2023-07-24T10:05:05;5.50;;;3.97;;
37701;SDS011;23548;51.196;6.838;2023-07-24T10:07:31;7.30;;;4.00;;
37701;SDS011;23548;51.196;6.838;2023-07-24T10:09:58;6.68;;;4.15;;
37701;SDS011;23548;51.196;6.838;2023-07-24T10:12:24;6.60;;;4.00;;
37701;SDS011;23548;51.196;6.838;2023-07-24T10:14:53;6.45;;;4.15;;
37701;SDS011;23548;51.196;6.838;2023-07-24T10:17:41;5.95;;;4.20;;
37701;SDS011;23548;51.196;6.838;2023-07-24T10:20:10;6.28;;;3.95;;
37701;SDS011;23548;51.196;6.838;2023-07-24T10:22:40;4.50;;;3.50;;
37701;SDS011;23548;51.196;6.838;2023-07-24T10:25:07;5.60;;;3.78;;
37701;SDS011;23548;51.196;6.838;2023-07-24T10:27:43;4.93;;;3.67;;
37701;SDS011;23548;51.196;6.838;2023-07-24T10:30:11;5.00;;;3.58;;
37701;SDS011;23548;51.196;6.838;2023-07-24T10:32:46;4.57;;;3.72;;
37701;SDS011;23548;51.196;6.838;2023-07-24T10:35:14;7.15;;;3.60;;
37701;SDS011;23548;51.196;6.838;2023-07-24T10:37:42;9.02;;;3.88;;
37701;SDS011;23548;51.196;6.838;2023-07-24T10:40:18;6.05;;;3.80;;
37701;SDS011;23548;51.196;6.838;2023-07-24T10:42:44;6.55;;;3.80;;
37701;SDS011;23548;51.196;6.838;2023-07-24T10:45:10;5.25;;;3.80;;
37701;SDS011;23548;51.196;6.838;2023-07-24T10:47:36;4.80;;;3.47;;
37701;SDS011;23548;51.196;6.838;2023-07-24T10:50:02;5.22;;;3.55;;
37701;SDS011;23548;51.196;6.838;2023-07-24T10:52:32;8.05;;;4.50;;
37701;SDS011;23548;51.196;6.838;2023-07-24T10:55:04;6.65;;;4.15;;
37701;SDS011;23548;51.196;6.838;2023-07-24T10:57:31;4.18;;;3.05;;
37701;SDS011;23548;51.196;6.838;2023-07-24T10:59:56;5.18;;;3.10;;
37701;SDS011;23548;51.196;6.838;2023-07-24T11:02:22;6.22;;;3.38;;
37701;SDS011;23548;51.196;6.838;2023-07-24T11:04:48;5.53;;;3.13;;
37701;SDS011;23548;51.196;6.838;2023-07-24T11:07:14;4.35;;;3.22;;
37701;SDS011;23548;51.196;6.838;2023-07-24T11:16:24;4.85;;;3.30;;
37701;SDS011;23548;51.196;6.838;2023-07-24T11:18:50;7.13;;;3.67;;
37701;SDS011;23548;51.196;6.838;2023-07-24T11:21:20;3.88;;;2.97;;
37701;SDS011;23548;51.196;6.838;2023-07-24T11:23:49;5.50;;;3.33;;
37701;SDS011;23548;51.196;6.838;2023-07-24T11:26:23;5.65;;;3.22;;
37701;SDS011;23548;51.196;6.838;2023-07-24T11:28:50;4.00;;;3.05;;
37701;SDS011;23548;51.196;6.838;2023-07-24T11:31:17;4.22;;;3.25;;
37701;SDS011;23548;51.196;6.838;2023-07-24T11:33:45;5.40;;;3.45;;
37701;SDS011;23548;51.196;6.838;2023-07-24T11:36:12;8.30;;;3.67;;
37701;SDS011;23548;51.196;6.838;2023-07-24T11:38:39;9.60;;;3.78;;
37701;SDS011;23548;51.196;6.838;2023-07-24T11:41:05;8.57;;;2.83;;
37701;SDS011;23548;51.196;6.838;2023-07-24T11:43:33;7.80;;;3.00;;
37701;SDS011;23548;51.196;6.838;2023-07-24T11:45:59;8.25;;;2.55;;
37701;SDS011;23548;51.196;6.838;2023-07-24T11:48:25;9.98;;;3.35;;
37701;SDS011;23548;51.196;6.838;2023-07-24T11:50:52;5.60;;;3.10;;
37701;SDS011;23548;51.196;6.838;2023-07-24T11:53:25;6.82;;;3.10;;
37701;SDS011;23548;51.196;6.838;2023-07-24T11:55:56;5.90;;;3.33;;
37701;SDS011;23548;51.196;6.838;2023-07-24T11:58:29;8.60;;;3.30;;
37701;SDS011;23548;51.196;6.838;2023-07-24T12:00:55;11.23;;;3.53;;
37701;SDS011;23548;51.196;6.838;2023-07-24T12:05:49;6.25;;;3.15;;
37701;SDS011;23548;51.196;6.838;2023-07-24T12:08:17;7.15;;;2.60;;
37701;SDS011;23548;51.196;6.838;2023-07-24T12:10:54;7.22;;;3.15;;
37701;SDS011;23548;51.196;6.838;2023-07-24T12:13:20;5.65;;;2.88;;
37701;SDS011;23548;51.196;6.838;2023-07-24T12:15:45;6.13;;;2.92;;
37701;SDS011;23548;51.196;6.838;2023-07-24T12:18:11;5.90;;;2.60;;
37701;SDS011;23548;51.196;6.838;2023-07-24T12:20:37;6.07;;;2.58;;
37701;SDS011;23548;51.196;6.838;2023-07-24T12:23:03;5.13;;;2.42;;
37701;SDS011;23548;51.196;6.838;2023-07-24T12:25:29;6.15;;;3.00;;
37701;SDS011;23548;51.196;6.838;2023-07-24T12:27:55;8.48;;;2.28;;
37701;SDS011;23548;51.196;6.838;2023-07-24T12:30:21;5.60;;;2.58;;
37701;SDS011;23548;51.196;6.838;2023-07-24T12:32:47;3.25;;;2.28;;
37701;SDS011;23548;51.196;6.838;2023-07-24T12:35:13;4.32;;;2.30;;
37701;SDS011;23548;51.196;6.838;2023-07-24T12:37:40;3.55;;;2.47;;
37701;SDS011;23548;51.196;6.838;2023-07-24T12:40:07;3.90;;;2.63;;
37701;SDS011;23548;51.196;6.838;2023-07-24T12:42:34;3.60;;;2.15;;
37701;SDS011;23548;51.196;6.838;2023-07-24T12:45:00;2.83;;;2.30;;
37701;SDS011;23548;51.196;6.838;2023-07-24T12:47:27;3.15;;;1.95;;
37701;SDS011;23548;51.196;6.838;2023-07-24T12:49:53;4.93;;;2.13;;
37701;SDS011;23548;51.196;6.838;2023-07-24T12:52:21;4.25;;;2.40;;
37701;SDS011;23548;51.196;6.838;2023-07-24T12:54:47;3.17;;;2.08;;
37701;SDS011;23548;51.196;6.838;2023-07-24T12:57:12;3.45;;;2.00;;
37701;SDS011;23548;51.196;6.838;2023-07-24T12:59:38;2.67;;;2.00;;
37701;SDS011;23548;51.196;6.838;2023-07-24T13:02:04;4.38;;;1.67;;
37701;SDS011;23548;51.196;6.838;2023-07-24T13:04:31;4.10;;;2.13;;
37701;SDS011;23548;51.196;6.838;2023-07-24T13:06:57;3.95;;;1.85;;
37701;SDS011;23548;51.196;6.838;2023-07-24T13:09:25;2.83;;;2.10;;
37701;SDS011;23548;51.196;6.838;2023-07-24T13:11:50;3.58;;;2.10;;
37701;SDS011;23548;51.196;6.838;2023-07-24T13:14:19;6.35;;;1.88;;
37701;SDS011;23548;51.196;6.838;2023-07-24T13:16:45;4.03;;;2.28;;
37701;SDS011;23548;51.196;6.838;2023-07-24T13:19:11;2.78;;;1.90;;
37701;SDS011;23548;51.196;6.838;2023-07-24T13:21:36;2.88;;;1.90;;
37701;SDS011;23548;51.196;6.838;2023-07-24T13:24:02;1.92;;;1.63;;
37701;SDS011;23548;51.196;6.838;2023-07-24T13:26:28;3.63;;;1.90;;
37701;SDS011;23548;51.196;6.838;2023-07-24T13:28:54;4.13;;;2.50;;
37701;SDS011;23548;51.196;6.838;2023-07-24T13:31:20;3.22;;;1.70;;
37701;SDS011;23548;51.196;6.838;2023-07-24T13:33:47;3.83;;;1.70;;
37701;SDS011;23548;51.196;6.838;2023-07-24T13:36:13;3.33;;;1.95;;
37701;SDS011;23548;51.196;6.838;2023-07-24T13:38:39;2.42;;;1.75;;
37701;SDS011;23548;51.196;6.838;2023-07-24T13:41:05;4.28;;;1.83;;
37701;SDS011;23548;51.196;6.838;2023-07-24T13:43:31;3.20;;;2.00;;
37701;SDS011;23548;51.196;6.838;2023-07-24T13:45:58;2.55;;;1.75;;
37701;SDS011;23548;51.196;6.838;2023-07-24T13:48:24;3.33;;;1.90;;
37701;SDS011;23548;51.196;6.838;2023-07-24T13:50:50;2.63;;;1.92;;
37701;SDS011;23548;51.196;6.838;2023-07-24T13:53:16;3.85;;;2.30;;
37701;SDS011;23548;51.196;6.838;2023-07-24T13:55:42;3.13;;;2.08;;
37701;SDS011;23548;51.196;6.838;2023-07-24T13:58:07;3.25;;;2.10;;
37701;SDS011;23548;51.196;6.838;2023-07-24T14:00:33;4.47;;;2.22;;
37701;SDS011;23548;51.196;6.838;2023-07-24T14:02:59;2.15;;;1.60;;
37701;SDS011;23548;51.196;6.838;2023-07-24T14:05:25;3.45;;;1.83;;
37701;SDS011;23548;51.196;6.838;2023-07-24T14:07:51;2.00;;;1.80;;
37701;SDS011;23548;51.196;6.838;2023-07-24T14:10:16;2.28;;;2.05;;
37701;SDS011;23548;51.196;6.838;2023-07-24T14:12:42;3.00;;;1.88;;
37701;SDS011;23548;51.196;6.838;2023-07-24T14:15:08;1.58;;;1.38;;
37701;SDS011;23548;51.196;6.838;2023-07-24T14:17:34;3.88;;;1.50;;
37701;SDS011;23548;51.196;6.838;2023-07-24T14:20:00;1.42;;;1.30;;
37701;SDS011;23548;51.196;6.838;2023-07-24T14:22:27;2.38;;;1.90;;
37701;SDS011;23548;51.196;6.838;2023-07-24T14:24:53;1.73;;;1.30;;
37701;SDS011;23548;51.196;6.838;2023-07-24T14:27:18;2.22;;;1.48;;
37701;SDS011;23548;51.196;6.838;2023-07-24T14:29:44;2.78;;;1.50;;
37701;SDS011;23548;51.196;6.838;2023-07-24T14:32:10;1.55;;;1.40;;
37701;SDS011;23548;51.196;6.838;2023-07-24T14:34:36;3.00;;;1.95;;
37701;SDS011;23548;51.196;6.838;2023-07-24T14:37:02;1.92;;;1.60;;
37701;SDS011;23548;51.196;6.838;2023-07-24T14:39:28;2.03;;;1.35;;
37701;SDS011;23548;51.196;6.838;2023-07-24T14:41:53;2.85;;;1.40;;
37701;SDS011;23548;51.196;6.838;2023-07-24T14:44:19;2.75;;;2.17;;
37701;SDS011;23548;51.196;6.838;2023-07-24T14:46:45;2.22;;;1.70;;
37701;SDS011;23548;51.196;6.838;2023-07-24T14:49:11;4.57;;;2.00;;
37701;SDS011;23548;51.196;6.838;2023-07-24T14:51:37;2.55;;;1.95;;
37701;SDS011;23548;51.196;6.838;2023-07-24T14:54:03;3.80;;;1.90;;